sensor_id;sensor_type;location;lat;lon;timestamp;pressure;altitude;pressure_sealevel;temperature;humidity
24962;BME280;12992;50.884;13.668;2023-05-12T00:01:49;97267.00;;;11.90;100.00
24962;BME280;12992;50.884;13.668;2023-05-12T00:04:15;97263.72;;;11.88;100.00
24962;BME280;12992;50.884;13.668;2023-05-12T00:06:40;97255.53;;;11.88;100.00
24962;BME280;12992;50.884;13.668;2023-05-12T00:09:06;97268.69;;;11.96;100.00
24962;BME280;12992;50.884;13.668;2023-05-12T00:11:32;97267.03;;;11.95;100.00
24962;BME280;12992;50.884;13.668;2023-05-12T00:13:57;97260.19;;;11.87;100.00
24962;BME280;12992;50.884;13.668;2023-05-12T00:16:22;97271.13;;;11.98;100.00
24962;BME280;12992;50.884;13.668;2023-05-12T00:18:48;97276.31;;;11.99;100.00
24962;BME280;12992;50.884;13.668;2023-05-12T00:21:13;97279.28;;;11.93;100.00
24962;BME280;12992;50.884;13.668;2023-05-12T00:23:38;97275.19;;;11.90;100.00
24962;BME280;12992;50.884;13.668;2023-05-12T00:26:04;97276.84;;;11.91;100.00
24962;BME280;12992;50.884;13.668;2023-05-12T00:28:29;97275.50;;;11.94;100.00
24962;BME280;12992;50.884;13.668;2023-05-12T00:30:55;97271.41;;;12.01;100.00
24962;BME280;12992;50.884;13.668;2023-05-12T00:33:21;97271.97;;;11.98;100.00
24962;BME280;12992;50.884;13.668;2023-05-12T00:35:46;97281.28;;;12.02;100.00
24962;BME280;12992;50.884;13.668;2023-05-12T00:38:12;97290.50;;;11.96;100.00
24962;BME280;12992;50.884;13.668;2023-05-12T00:40:37;97274.38;;;11.84;100.00
24962;BME280;12992;50.884;13.668;2023-05-12T00:43:03;97281.63;;;11.74;100.00
24962;BME280;12992;50.884;13.668;2023-05-12T00:45:29;97285.16;;;11.74;100.00
24962;BME280;12992;50.884;13.668;2023-05-12T00:47:55;97279.19;;;11.77;100.00
24962;BME280;12992;50.884;13.668;2023-05-12T00:50:21;97284.09;;;11.75;100.00
24962;BME280;12992;50.884;13.668;2023-05-12T00:52:47;97286.56;;;11.77;100.00
24962;BME280;12992;50.884;13.668;2023-05-12T00:55:14;97289.84;;;11.79;100.00
24962;BME280;12992;50.884;13.668;2023-05-12T00:57:40;97299.63;;;11.75;100.00
24962;BME280;12992;50.884;13.668;2023-05-12T01:00:06;97290.88;;;11.68;100.00
24962;BME280;12992;50.884;13.668;2023-05-12T01:02:32;97293.00;;;11.60;100.00
24962;BME280;12992;50.884;13.668;2023-05-12T01:04:57;97287.78;;;11.54;100.00
24962;BME280;12992;50.884;13.668;2023-05-12T01:07:24;97295.94;;;11.49;100.00
24962;BME280;12992;50.884;13.668;2023-05-12T01:09:54;97301.13;;;11.55;100.00
24962;BME280;12992;50.884;13.668;2023-05-12T01:12:21;97302.22;;;11.54;100.00
24962;BME280;12992;50.884;13.668;2023-05-12T01:14:47;97307.41;;;11.51;100.00
24962;BME280;12992;50.884;13.668;2023-05-12T01:17:16;97307.06;;;11.47;100.00
24962;BME280;12992;50.884;13.668;2023-05-12T01:22:14;97299.47;;;11.49;100.00
24962;BME280;12992;50.884;13.668;2023-05-12T01:24:47;97304.94;;;11.49;100.00
24962;BME280;12992;50.884;13.668;2023-05-12T01:27:14;97298.09;;;11.47;100.00
24962;BME280;12992;50.884;13.668;2023-05-12T01:29:41;97304.88;;;11.44;100.00
24962;BME280;12992;50.884;13.668;2023-05-12T01:32:08;97300.22;;;11.40;100.00
24962;BME280;12992;50.884;13.668;2023-05-12T01:34:33;97301.56;;;11.37;100.00
24962;BME280;12992;50.884;13.668;2023-05-12T01:37:00;97314.16;;;11.43;100.00
24962;BME280;12992;50.884;13.668;2023-05-12T01:39:25;97298.84;;;11.37;100.00
24962;BME280;12992;50.884;13.668;2023-05-12T01:41:51;97312.50;;;11.42;100.00
24962;BME280;12992;50.884;13.668;2023-05-12T01:44:17;97311.16;;;11.45;100.00
24962;BME280;12992;50.884;13.668;2023-05-12T01:46:43;97304.06;;;11.44;100.00
24962;BME280;12992;50.884;13.668;2023-05-12T01:49:08;97305.16;;;11.48;100.00
24962;BME280;12992;50.884;13.668;2023-05-12T01:51:34;97307.41;;;11.51;100.00
24962;BME280;12992;50.884;13.668;2023-05-12T01:54:00;97301.06;;;11.45;100.00
24962;BME280;12992;50.884;13.668;2023-05-12T01:56:29;97313.63;;;11.46;100.00
24962;BME280;12992;50.884;13.668;2023-05-12T01:58:54;97320.97;;;11.41;100.00
24962;BME280;12992;50.884;13.668;2023-05-12T02:01:19;97320.13;;;11.40;100.00
24962;BME280;12992;50.884;13.668;2023-05-12T02:03:45;97320.09;;;11.35;100.00
24962;BME280;12992;50.884;13.668;2023-05-12T02:06:12;97323.91;;;11.39;100.00
24962;BME280;12992;50.884;13.668;2023-05-12T02:08:38;97321.16;;;11.34;100.00
24962;BME280;12992;50.884;13.668;2023-05-12T02:11:08;97322.25;;;11.33;100.00
24962;BME280;12992;50.884;13.668;2023-05-12T02:13:34;97319.53;;;11.33;100.00
24962;BME280;12992;50.884;13.668;2023-05-12T02:16:00;97327.16;;;11.31;100.00
24962;BME280;12992;50.884;13.668;2023-05-12T02:18:27;97314.03;;;11.28;100.00
24962;BME280;12992;50.884;13.668;2023-05-12T02:20:52;97320.56;;;11.27;100.00
24962;BME280;12992;50.884;13.668;2023-05-12T02:23:18;97317.84;;;11.27;100.00
24962;BME280;12992;50.884;13.668;2023-05-12T02:25:43;97325.81;;;11.33;100.00
24962;BME280;12992;50.884;13.668;2023-05-12T02:28:08;97327.03;;;11.21;100.00
24962;BME280;12992;50.884;13.668;2023-05-12T02:30:36;97321.84;;;11.14;100.00
24962;BME280;12992;50.884;13.668;2023-05-12T02:33:02;97327.53;;;11.13;100.00
24962;BME280;12992;50.884;13.668;2023-05-12T02:35:30;97317.47;;;11.13;100.00
24962;BME280;12992;50.884;13.668;2023-05-12T02:37:56;97322.59;;;11.10;100.00
24962;BME280;12992;50.884;13.668;2023-05-12T02:40:22;97322.66;;;11.15;100.00
24962;BME280;12992;50.884;13.668;2023-05-12T02:42:48;97337.94;;;11.21;100.00
24962;BME280;12992;50.884;13.668;2023-05-12T02:45:13;97333.56;;;11.15;100.00
24962;BME280;12992;50.884;13.668;2023-05-12T02:47:39;97324.78;;;11.13;100.00
24962;BME280;12992;50.884;13.668;2023-05-12T02:50:05;97323.97;;;11.12;100.00
24962;BME280;12992;50.884;13.668;2023-05-12T02:52:31;97333.03;;;11.18;100.00
24962;BME280;12992;50.884;13.668;2023-05-12T02:54:56;97324.91;;;11.23;100.00
24962;BME280;12992;50.884;13.668;2023-05-12T02:57:21;97323.25;;;11.22;100.00
24962;BME280;12992;50.884;13.668;2023-05-12T02:59:47;97322.94;;;11.18;100.00
24962;BME280;12992;50.884;13.668;2023-05-12T03:02:12;97326.47;;;11.14;100.00
24962;BME280;12992;50.884;13.668;2023-05-12T03:04:38;97326.97;;;11.11;100.00
24962;BME280;12992;50.884;13.668;2023-05-12T03:07:03;97331.59;;;11.10;100.00
24962;BME280;12992;50.884;13.668;2023-05-12T03:09:29;97337.31;;;11.09;100.00
24962;BME280;12992;50.884;13.668;2023-05-12T03:11:54;97331.78;;;11.03;100.00
24962;BME280;12992;50.884;13.668;2023-05-12T03:14:20;97324.69;;;11.02;100.00
24962;BME280;12992;50.884;13.668;2023-05-12T03:16:45;97336.13;;;10.99;100.00
24962;BME280;12992;50.884;13.668;2023-05-12T03:19:10;97332.22;;;10.90;100.00
24962;BME280;12992;50.884;13.668;2023-05-12T03:21:36;97330.53;;;10.84;100.00
24962;BME280;12992;50.884;13.668;2023-05-12T03:24:02;97333.50;;;10.83;100.00
24962;BME280;12992;50.884;13.668;2023-05-12T03:26:27;97339.25;;;10.86;100.00
24962;BME280;12992;50.884;13.668;2023-05-12T03:28:52;97346.13;;;10.89;100.00
24962;BME280;12992;50.884;13.668;2023-05-12T03:31:18;97342.59;;;10.93;100.00
24962;BME280;12992;50.884;13.668;2023-05-12T03:33:43;97345.38;;;10.98;100.00
24962;BME280;12992;50.884;13.668;2023-05-12T03:36:09;97347.03;;;10.99;100.00
24962;BME280;12992;50.884;13.668;2023-05-12T03:38:34;97347.03;;;10.99;100.00
24962;BME280;12992;50.884;13.668;2023-05-12T03:41:06;97358.03;;;11.10;100.00
24962;BME280;12992;50.884;13.668;2023-05-12T03:43:33;97343.28;;;11.05;100.00
24962;BME280;12992;50.884;13.668;2023-05-12T03:45:58;97352.03;;;11.13;100.00
24962;BME280;12992;50.884;13.668;2023-05-12T03:48:24;97343.84;;;11.07;100.00
24962;BME280;12992;50.884;13.668;2023-05-12T03:50:49;97349.28;;;11.07;100.00
24962;BME280;12992;50.884;13.668;2023-05-12T03:53:14;97346.56;;;11.07;100.00
24962;BME280;12992;50.884;13.668;2023-05-12T03:55:40;97346.84;;;11.06;100.00
24962;BME280;12992;50.884;13.668;2023-05-12T03:58:06;97354.75;;;11.07;100.00
24962;BME280;12992;50.884;13.668;2023-05-12T04:00:32;97350.63;;;11.05;100.00
24962;BME280;12992;50.884;13.668;2023-05-12T04:02:57;97358.03;;;11.10;100.00
24962;BME280;12992;50.884;13.668;2023-05-12T04:05:23;97352.56;;;11.10;100.00
24962;BME280;12992;50.884;13.668;2023-05-12T04:07:48;97366.84;;;11.22;100.00
24962;BME280;12992;50.884;13.668;2023-05-12T04:10:14;97362.75;;;11.19;100.00
24962;BME280;12992;50.884;13.668;2023-05-12T04:12:39;97371.53;;;11.26;100.00
24962;BME280;12992;50.884;13.668;2023-05-12T04:15:06;97367.78;;;11.32;100.00
24962;BME280;12992;50.884;13.668;2023-05-12T04:17:32;97368.69;;;11.43;100.00
24962;BME280;12992;50.884;13.668;2023-05-12T04:19:57;97371.22;;;11.50;100.00
24962;BME280;12992;50.884;13.668;2023-05-12T04:22:23;97374.84;;;11.60;100.00
24962;BME280;12992;50.884;13.668;2023-05-12T04:24:49;97366.34;;;11.57;100.00
24962;BME280;12992;50.884;13.668;2023-05-12T04:27:15;97382.53;;;11.69;100.00
24962;BME280;12992;50.884;13.668;2023-05-12T04:29:40;97362.84;;;11.61;100.00
24962;BME280;12992;50.884;13.668;2023-05-12T04:32:06;97380.69;;;11.79;100.00
24962;BME280;12992;50.884;13.668;2023-05-12T04:34:33;97380.97;;;11.78;100.00
24962;BME280;12992;50.884;13.668;2023-05-12T04:36:58;97385.41;;;11.84;100.00
24962;BME280;12992;50.884;13.668;2023-05-12T04:39:24;97386.25;;;11.89;100.00
24962;BME280;12992;50.884;13.668;2023-05-12T04:41:50;97390.97;;;11.99;100.00
24962;BME280;12992;50.884;13.668;2023-05-12T04:44:16;97391.34;;;12.13;100.00
24962;BME280;12992;50.884;13.668;2023-05-12T04:46:41;97388.88;;;12.16;100.00
24962;BME280;12992;50.884;13.668;2023-05-12T04:49:07;97384.06;;;12.29;100.00
24962;BME280;12992;50.884;13.668;2023-05-12T04:51:33;97378.00;;;12.27;100.00
24962;BME280;12992;50.884;13.668;2023-05-12T04:53:58;97384.69;;;12.46;100.00
24962;BME280;12992;50.884;13.668;2023-05-12T04:56:24;97389.38;;;12.61;100.00
24962;BME280;12992;50.884;13.668;2023-05-12T04:58:50;97376.53;;;12.56;100.00
24962;BME280;12992;50.884;13.668;2023-05-12T05:01:15;97368.31;;;12.51;100.00
24962;BME280;12992;50.884;13.668;2023-05-12T05:03:40;97383.94;;;12.71;100.00
24962;BME280;12992;50.884;13.668;2023-05-12T05:06:06;97396.31;;;12.94;100.00
24962;BME280;12992;50.884;13.668;2023-05-12T05:08:32;97387.88;;;13.00;100.00
24962;BME280;12992;50.884;13.668;2023-05-12T05:10:57;97396.91;;;13.16;100.00
24962;BME280;12992;50.884;13.668;2023-05-12T05:13:23;97374.78;;;13.13;100.00
24962;BME280;12992;50.884;13.668;2023-05-12T05:15:51;97391.53;;;13.26;100.00
24962;BME280;12992;50.884;13.668;2023-05-12T05:18:17;97404.09;;;13.43;100.00
24962;BME280;12992;50.884;13.668;2023-05-12T05:20:43;97408.50;;;13.54;100.00
24962;BME280;12992;50.884;13.668;2023-05-12T05:23:10;97389.88;;;13.41;100.00
24962;BME280;12992;50.884;13.668;2023-05-12T05:25:36;97410.13;;;13.60;100.00
24962;BME280;12992;50.884;13.668;2023-05-12T05:28:02;97379.22;;;13.39;100.00
24962;BME280;12992;50.884;13.668;2023-05-12T05:30:27;97398.63;;;13.43;100.00
24962;BME280;12992;50.884;13.668;2023-05-12T05:32:53;97394.81;;;13.49;100.00
24962;BME280;12992;50.884;13.668;2023-05-12T05:35:18;97412.63;;;13.72;100.00
24962;BME280;12992;50.884;13.668;2023-05-12T05:37:46;97421.66;;;13.87;100.00
24962;BME280;12992;50.884;13.668;2023-05-12T05:40:12;97427.09;;;14.03;100.00
24962;BME280;12992;50.884;13.668;2023-05-12T05:42:38;97428.75;;;14.14;100.00
24962;BME280;12992;50.884;13.668;2023-05-12T05:45:04;97435.81;;;14.30;100.00
24962;BME280;12992;50.884;13.668;2023-05-12T05:47:29;97426.78;;;14.35;100.00
24962;BME280;12992;50.884;13.668;2023-05-12T05:49:56;97427.63;;;14.40;100.00
24962;BME280;12992;50.884;13.668;2023-05-12T05:52:21;97433.63;;;14.37;100.00
24962;BME280;12992;50.884;13.668;2023-05-12T05:54:48;97432.53;;;14.49;100.00
24962;BME280;12992;50.884;13.668;2023-05-12T05:57:15;97444.56;;;14.68;100.00
24962;BME280;12992;50.884;13.668;2023-05-12T05:59:40;97439.03;;;14.78;100.00
24962;BME280;12992;50.884;13.668;2023-05-12T06:02:06;97434.53;;;15.02;100.00
24962;BME280;12992;50.884;13.668;2023-05-12T06:04:31;97449.25;;;15.22;100.00
24962;BME280;12992;50.884;13.668;2023-05-12T06:06:56;97450.25;;;15.41;100.00
24962;BME280;12992;50.884;13.668;2023-05-12T06:09:22;97442.44;;;15.58;100.00
24962;BME280;12992;50.884;13.668;2023-05-12T06:11:47;97442.09;;;15.75;99.78
24962;BME280;12992;50.884;13.668;2023-05-12T06:14:15;97433.53;;;15.82;99.15
24962;BME280;12992;50.884;13.668;2023-05-12T06:16:41;97453.44;;;15.98;100.00
24962;BME280;12992;50.884;13.668;2023-05-12T06:19:06;97435.03;;;15.98;98.65
24962;BME280;12992;50.884;13.668;2023-05-12T06:21:31;97443.19;;;16.37;90.79
24962;BME280;12992;50.884;13.668;2023-05-12T06:23:57;97453.94;;;16.34;98.27
24962;BME280;12992;50.884;13.668;2023-05-12T06:26:23;97429.38;;;16.19;94.01
24962;BME280;12992;50.884;13.668;2023-05-12T06:28:48;97394.69;;;15.65;94.88
24962;BME280;12992;50.884;13.668;2023-05-12T06:31:13;97426.25;;;15.96;90.46
24962;BME280;12992;50.884;13.668;2023-05-12T06:33:38;97426.00;;;16.27;91.46
24962;BME280;12992;50.884;13.668;2023-05-12T06:36:04;97449.81;;;16.60;96.35
24962;BME280;12992;50.884;13.668;2023-05-12T06:38:31;97461.66;;;17.33;85.49
24962;BME280;12992;50.884;13.668;2023-05-12T06:40:56;97451.88;;;17.21;91.45
24962;BME280;12992;50.884;13.668;2023-05-12T06:43:22;97398.81;;;16.49;94.57
24962;BME280;12992;50.884;13.668;2023-05-12T06:45:48;97441.59;;;16.84;94.29
24962;BME280;12992;50.884;13.668;2023-05-12T06:48:13;97437.06;;;17.17;87.05
24962;BME280;12992;50.884;13.668;2023-05-12T06:50:39;97445.50;;;17.64;84.03
24962;BME280;12992;50.884;13.668;2023-05-12T06:53:04;97453.03;;;17.96;82.82
24962;BME280;12992;50.884;13.668;2023-05-12T06:55:32;97419.09;;;18.14;69.14
24962;BME280;12992;50.884;13.668;2023-05-12T06:57:57;97409.09;;;18.18;70.02
24962;BME280;12992;50.884;13.668;2023-05-12T07:00:23;97375.50;;;18.16;64.22
24962;BME280;12992;50.884;13.668;2023-05-12T07:02:49;97340.53;;;17.65;66.29
24962;BME280;12992;50.884;13.668;2023-05-12T07:05:14;97338.47;;;17.57;64.61
24962;BME280;12992;50.884;13.668;2023-05-12T07:07:39;97391.53;;;18.14;63.39
24962;BME280;12992;50.884;13.668;2023-05-12T07:10:06;97374.00;;;18.24;63.86
24962;BME280;12992;50.884;13.668;2023-05-12T07:12:31;97375.22;;;18.45;62.49
24962;BME280;12992;50.884;13.668;2023-05-12T07:14:57;97365.84;;;18.60;59.94
24962;BME280;12992;50.884;13.668;2023-05-12T07:17:22;97345.63;;;18.51;57.09
24962;BME280;12992;50.884;13.668;2023-05-12T07:19:47;97341.34;;;18.31;59.37
24962;BME280;12992;50.884;13.668;2023-05-12T07:22:13;97322.28;;;18.02;61.43
24962;BME280;12992;50.884;13.668;2023-05-12T07:24:38;97337.84;;;18.25;60.89
24962;BME280;12992;50.884;13.668;2023-05-12T07:27:04;97366.88;;;18.50;61.98
24962;BME280;12992;50.884;13.668;2023-05-12T07:29:30;97390.16;;;18.99;60.10
24962;BME280;12992;50.884;13.668;2023-05-12T07:31:55;97383.81;;;19.26;56.78
24962;BME280;12992;50.884;13.668;2023-05-12T07:34:20;97375.72;;;19.30;56.50
24962;BME280;12992;50.884;13.668;2023-05-12T07:36:46;97351.94;;;19.06;57.42
24962;BME280;12992;50.884;13.668;2023-05-12T07:39:11;97342.38;;;18.76;63.60
24962;BME280;12992;50.884;13.668;2023-05-12T07:41:39;97353.88;;;19.06;59.10
24962;BME280;12992;50.884;13.668;2023-05-12T07:44:06;97382.31;;;19.42;61.03
24962;BME280;12992;50.884;13.668;2023-05-12T07:46:31;97394.25;;;19.65;62.98
24962;BME280;12992;50.884;13.668;2023-05-12T07:48:57;97415.78;;;20.22;60.76
24962;BME280;12992;50.884;13.668;2023-05-12T07:51:22;97429.84;;;20.96;57.04
24962;BME280;12992;50.884;13.668;2023-05-12T07:53:47;97380.22;;;20.60;55.40
24962;BME280;12992;50.884;13.668;2023-05-12T07:56:13;97348.91;;;20.20;56.37
24962;BME280;12992;50.884;13.668;2023-05-12T07:58:38;97328.75;;;19.66;58.56
24962;BME280;12992;50.884;13.668;2023-05-12T08:01:03;97339.22;;;19.55;62.84
24962;BME280;12992;50.884;13.668;2023-05-12T08:03:31;97358.50;;;19.69;62.04
24962;BME280;12992;50.884;13.668;2023-05-12T08:05:57;97369.94;;;19.98;61.52
24962;BME280;12992;50.884;13.668;2023-05-12T08:08:22;97370.19;;;20.11;60.33
24962;BME280;12992;50.884;13.668;2023-05-12T08:10:47;97352.34;;;19.94;60.25
24962;BME280;12992;50.884;13.668;2023-05-12T08:13:13;97362.53;;;20.07;60.55
24962;BME280;12992;50.884;13.668;2023-05-12T08:15:38;97379.34;;;20.20;61.29
24962;BME280;12992;50.884;13.668;2023-05-12T08:18:03;97328.31;;;19.72;63.89
24962;BME280;12992;50.884;13.668;2023-05-12T08:20:29;97406.28;;;20.59;59.95
24962;BME280;12992;50.884;13.668;2023-05-12T08:22:55;97434.53;;;21.27;62.04
24962;BME280;12992;50.884;13.668;2023-05-12T08:25:21;97477.81;;;22.40;58.84
24962;BME280;12992;50.884;13.668;2023-05-12T08:27:46;97408.69;;;22.73;53.57
24962;BME280;12992;50.884;13.668;2023-05-12T08:30:11;97454.63;;;24.10;52.97
24962;BME280;12992;50.884;13.668;2023-05-12T08:32:37;97419.91;;;23.95;51.37
24962;BME280;12992;50.884;13.668;2023-05-12T08:35:03;97468.78;;;25.16;46.94
24962;BME280;12992;50.884;13.668;2023-05-12T08:37:28;97441.59;;;25.74;46.35
24962;BME280;12992;50.884;13.668;2023-05-12T08:39:54;97428.00;;;26.41;46.38
24962;BME280;12992;50.884;13.668;2023-05-12T08:45:13;97448.41;;;27.83;42.05
24962;BME280;12992;50.884;13.668;2023-05-12T08:47:39;97383.09;;;27.60;43.67
24962;BME280;12992;50.884;13.668;2023-05-12T08:50:06;97408.53;;;27.55;41.56
24962;BME280;12992;50.884;13.668;2023-05-12T08:52:34;97377.53;;;27.44;43.34
24962;BME280;12992;50.884;13.668;2023-05-12T08:54:59;97267.22;;;24.63;48.99
24962;BME280;12992;50.884;13.668;2023-05-12T08:57:25;97271.81;;;23.44;46.67
24962;BME280;12992;50.884;13.668;2023-05-12T08:59:52;97335.06;;;24.34;44.52
24962;BME280;12992;50.884;13.668;2023-05-12T09:02:23;97288.59;;;24.01;45.83
24962;BME280;12992;50.884;13.668;2023-05-12T09:04:52;97356.44;;;25.40;41.68
24962;BME280;12992;50.884;13.668;2023-05-12T09:07:19;97375.25;;;26.67;39.38
24962;BME280;12992;50.884;13.668;2023-05-12T09:09:47;97345.59;;;26.63;39.29
24962;BME280;12992;50.884;13.668;2023-05-12T09:12:17;97304.28;;;26.09;39.93
24962;BME280;12992;50.884;13.668;2023-05-12T09:14:44;97235.34;;;24.61;40.78
24962;BME280;12992;50.884;13.668;2023-05-12T09:17:11;97232.13;;;23.77;42.26
24962;BME280;12992;50.884;13.668;2023-05-12T09:19:36;97183.53;;;21.98;47.11
24962;BME280;12992;50.884;13.668;2023-05-12T09:22:02;97241.81;;;22.66;44.34
24962;BME280;12992;50.884;13.668;2023-05-12T09:24:38;97251.56;;;23.02;43.57
24962;BME280;12992;50.884;13.668;2023-05-12T09:27:04;97280.72;;;23.50;45.00
24962;BME280;12992;50.884;13.668;2023-05-12T09:29:30;97357.84;;;25.34;43.61
24962;BME280;12992;50.884;13.668;2023-05-12T09:31:58;97341.28;;;26.21;39.50
24962;BME280;12992;50.884;13.668;2023-05-12T09:34:28;97369.31;;;27.51;38.89
24962;BME280;12992;50.884;13.668;2023-05-12T09:37:01;97342.44;;;28.24;36.74
24962;BME280;12992;50.884;13.668;2023-05-12T09:39:27;97309.34;;;27.87;38.96
24962;BME280;12992;50.884;13.668;2023-05-12T09:41:53;97255.22;;;26.55;38.27
24962;BME280;12992;50.884;13.668;2023-05-12T09:44:19;97233.69;;;25.64;39.82
24962;BME280;12992;50.884;13.668;2023-05-12T09:46:45;97211.91;;;24.49;42.75
24962;BME280;12992;50.884;13.668;2023-05-12T09:49:11;97208.19;;;24.57;43.89
24962;BME280;12992;50.884;13.668;2023-05-12T09:51:37;97169.69;;;23.53;42.51
24962;BME280;12992;50.884;13.668;2023-05-12T09:54:02;97140.25;;;22.44;44.63
24962;BME280;12992;50.884;13.668;2023-05-12T09:56:29;97154.69;;;21.53;46.95
24962;BME280;12992;50.884;13.668;2023-05-12T09:58:56;97181.38;;;21.74;46.17
24962;BME280;12992;50.884;13.668;2023-05-12T10:01:23;97269.06;;;23.77;44.07
24962;BME280;12992;50.884;13.668;2023-05-12T10:03:52;97174.41;;;23.07;43.87
24962;BME280;12992;50.884;13.668;2023-05-12T10:06:27;97225.38;;;23.44;47.99
24962;BME280;12992;50.884;13.668;2023-05-12T10:09:01;97254.75;;;23.99;47.80
24962;BME280;12992;50.884;13.668;2023-05-12T10:11:28;97192.16;;;23.15;43.21
24962;BME280;12992;50.884;13.668;2023-05-12T10:13:55;97144.50;;;22.42;44.97
24962;BME280;12992;50.884;13.668;2023-05-12T10:16:21;97154.16;;;21.68;51.78
24962;BME280;12992;50.884;13.668;2023-05-12T10:18:47;97213.19;;;22.74;46.19
24962;BME280;12992;50.884;13.668;2023-05-12T10:21:13;97229.16;;;23.07;50.74
24962;BME280;12992;50.884;13.668;2023-05-12T10:23:39;97166.91;;;22.57;45.63
24962;BME280;12992;50.884;13.668;2023-05-12T10:26:09;97152.22;;;21.98;46.09
24962;BME280;12992;50.884;13.668;2023-05-12T10:28:36;97167.44;;;21.19;50.32
24962;BME280;12992;50.884;13.668;2023-05-12T10:31:02;97165.44;;;21.54;47.71
24962;BME280;12992;50.884;13.668;2023-05-12T10:33:28;97158.47;;;21.57;50.53
24962;BME280;12992;50.884;13.668;2023-05-12T10:35:54;97213.44;;;22.90;48.85
24962;BME280;12992;50.884;13.668;2023-05-12T10:38:19;97222.59;;;23.44;47.50
24962;BME280;12992;50.884;13.668;2023-05-12T10:41:00;97162.06;;;22.75;46.60
24962;BME280;12992;50.884;13.668;2023-05-12T10:43:28;97208.16;;;23.30;45.33
24962;BME280;12992;50.884;13.668;2023-05-12T10:49:07;97263.38;;;24.80;44.75
24962;BME280;12992;50.884;13.668;2023-05-12T10:51:44;97275.16;;;25.38;44.77
24962;BME280;12992;50.884;13.668;2023-05-12T10:54:17;97203.28;;;24.79;42.71
24962;BME280;12992;50.884;13.668;2023-05-12T10:56:42;97242.91;;;25.53;41.87
24962;BME280;12992;50.884;13.668;2023-05-12T10:59:18;97157.84;;;23.89;45.93
24962;BME280;12992;50.884;13.668;2023-05-12T11:04:44;97167.38;;;23.55;45.08
24962;BME280;12992;50.884;13.668;2023-05-12T11:07:11;97133.75;;;22.61;46.21
24962;BME280;12992;50.884;13.668;2023-05-12T11:09:38;97144.44;;;22.29;48.94
24962;BME280;12992;50.884;13.668;2023-05-12T11:12:07;97150.56;;;22.05;47.94
24962;BME280;12992;50.884;13.668;2023-05-12T11:14:41;97151.94;;;21.91;48.67
24962;BME280;12992;50.884;13.668;2023-05-12T11:17:06;97161.19;;;22.33;47.13
24962;BME280;12992;50.884;13.668;2023-05-12T11:19:33;97141.63;;;21.62;53.42
24962;BME280;12992;50.884;13.668;2023-05-12T11:22:08;97155.94;;;21.72;52.36
24962;BME280;12992;50.884;13.668;2023-05-12T11:24:35;97187.22;;;22.49;49.59
24962;BME280;12992;50.884;13.668;2023-05-12T11:27:05;97207.78;;;23.53;47.65
24962;BME280;12992;50.884;13.668;2023-05-12T11:29:31;97188.78;;;23.42;49.33
24962;BME280;12992;50.884;13.668;2023-05-12T11:31:57;97178.59;;;23.59;47.42
24962;BME280;12992;50.884;13.668;2023-05-12T11:34:25;97133.88;;;22.44;47.62
24962;BME280;12992;50.884;13.668;2023-05-12T11:36:53;97123.34;;;21.14;50.75
24962;BME280;12992;50.884;13.668;2023-05-12T11:39:20;97133.63;;;20.44;51.31
24962;BME280;12992;50.884;13.668;2023-05-12T11:41:47;97139.69;;;19.98;52.33
24962;BME280;12992;50.884;13.668;2023-05-12T11:44:16;97147.31;;;19.52;52.87
24962;BME280;12992;50.884;13.668;2023-05-12T11:46:56;97170.22;;;19.84;53.36
24962;BME280;12992;50.884;13.668;2023-05-12T11:49:21;97169.75;;;19.91;55.22
24962;BME280;12992;50.884;13.668;2023-05-12T11:51:47;97173.81;;;19.93;53.56
24962;BME280;12992;50.884;13.668;2023-05-12T11:54:13;97177.88;;;19.96;53.29
24962;BME280;12992;50.884;13.668;2023-05-12T11:56:46;97188.78;;;20.49;54.46
24962;BME280;12992;50.884;13.668;2023-05-12T11:59:12;97186.00;;;19.92;59.72
24962;BME280;12992;50.884;13.668;2023-05-12T12:01:44;97187.78;;;20.36;54.09
24962;BME280;12992;50.884;13.668;2023-05-12T12:04:10;97180.09;;;20.25;52.54
24962;BME280;12992;50.884;13.668;2023-05-12T12:06:42;97179.50;;;19.88;57.86
24962;BME280;12992;50.884;13.668;2023-05-12T12:09:08;97183.66;;;19.77;55.62
24962;BME280;12992;50.884;13.668;2023-05-12T12:11:33;97198.47;;;20.21;54.16
24962;BME280;12992;50.884;13.668;2023-05-12T12:13:58;97201.50;;;20.50;53.98
24962;BME280;12992;50.884;13.668;2023-05-12T12:16:26;97173.16;;;19.96;53.76
24962;BME280;12992;50.884;13.668;2023-05-12T12:18:52;97176.09;;;19.91;52.39
24962;BME280;12992;50.884;13.668;2023-05-12T12:21:18;97181.25;;;19.84;54.12
24962;BME280;12992;50.884;13.668;2023-05-12T12:23:43;97221.88;;;21.15;52.04
24962;BME280;12992;50.884;13.668;2023-05-12T12:26:09;97245.94;;;22.89;52.39
24962;BME280;12992;50.884;13.668;2023-05-12T12:28:34;97227.59;;;23.51;44.95
24962;BME280;12992;50.884;13.668;2023-05-12T12:31:00;97267.81;;;24.69;44.97
24962;BME280;12992;50.884;13.668;2023-05-12T12:33:25;97291.44;;;25.92;42.93
24962;BME280;12992;50.884;13.668;2023-05-12T12:35:51;97296.91;;;26.95;41.34
24962;BME280;12992;50.884;13.668;2023-05-12T12:38:16;97320.63;;;27.56;43.37
24962;BME280;12992;50.884;13.668;2023-05-12T12:40:41;97250.47;;;26.91;40.80
24962;BME280;12992;50.884;13.668;2023-05-12T12:43:07;97266.53;;;27.29;39.44
24962;BME280;12992;50.884;13.668;2023-05-12T12:45:32;97247.53;;;27.19;39.83
24962;BME280;12992;50.884;13.668;2023-05-12T12:47:58;97277.13;;;27.74;41.44
24962;BME280;12992;50.884;13.668;2023-05-12T12:50:23;97221.44;;;27.30;39.29
24962;BME280;12992;50.884;13.668;2023-05-12T12:52:49;97222.44;;;27.03;39.70